createdAt,value
2018-03-26T00:00:47.313Z,13.3
2018-03-26T00:01:50.043Z,13.3
2018-03-26T00:02:52.478Z,13.3
2018-03-26T00:03:55.204Z,13.3
2018-03-26T00:04:57.630Z,13.3
2018-03-26T00:06:00.636Z,13.3
2018-03-26T00:07:03.068Z,13.2
2018-03-26T00:08:05.495Z,13.2
2018-03-26T00:09:08.215Z,13.2
2018-03-26T00:10:10.649Z,13.2
2018-03-26T00:11:13.353Z,13.1
2018-03-26T00:12:15.783Z,13.1
2018-03-26T00:13:18.211Z,13.1
2018-03-26T00:14:20.633Z,13.1
2018-03-26T00:15:23.070Z,13.1
2018-03-26T00:16:25.499Z,13
2018-03-26T00:17:27.918Z,13
2018-03-26T00:18:30.635Z,13
2018-03-26T00:19:33.071Z,13
2018-03-26T00:20:35.502Z,13
2018-03-26T00:21:38.231Z,13
2018-03-26T00:22:40.962Z,12.9
2018-03-26T00:23:43.391Z,13
2018-03-26T00:24:45.829Z,13
2018-03-26T00:25:48.540Z,13
2018-03-26T00:26:50.979Z,13
2018-03-26T00:27:53.404Z,13
2018-03-26T00:28:56.124Z,13
2018-03-26T00:29:58.855Z,13
2018-03-26T00:31:01.287Z,13
2018-03-26T00:32:03.709Z,13
2018-03-26T00:33:06.137Z,13
2018-03-26T00:34:08.565Z,13
2018-03-26T00:35:11.001Z,13
2018-03-26T00:36:13.433Z,13
2018-03-26T00:37:15.860Z,13
2018-03-26T00:38:18.296Z,13
2018-03-26T00:39:21.005Z,13
2018-03-26T00:40:23.441Z,12.9
2018-03-26T00:41:25.866Z,12.9
2018-03-26T00:42:28.284Z,12.9
2018-03-26T00:43:31.292Z,12.9
2018-03-26T00:44:33.726Z,12.9
2018-03-26T00:45:36.156Z,12.9
2018-03-26T00:46:38.591Z,12.9
2018-03-26T00:47:41.022Z,12.9
2018-03-26T00:48:43.728Z,12.9
2018-03-26T00:49:46.166Z,12.9
2018-03-26T00:50:48.889Z,12.9
2018-03-26T00:51:51.322Z,12.9
2018-03-26T00:52:53.756Z,12.9
2018-03-26T00:53:56.176Z,12.9
2018-03-26T00:54:58.617Z,12.9
2018-03-26T00:56:01.351Z,12.9
2018-03-26T00:57:03.839Z,12.9
2018-03-26T00:58:06.215Z,12.9
2018-03-26T00:59:08.936Z,12.9
2018-03-26T01:00:11.652Z,12.8
2018-03-26T01:01:14.396Z,12.8
2018-03-26T01:02:16.826Z,12.8
2018-03-26T01:03:19.540Z,12.8
2018-03-26T01:04:21.981Z,12.8
2018-03-26T01:05:24.397Z,12.7
2018-03-26T01:06:26.833Z,12.7
2018-03-26T01:07:29.269Z,12.7
2018-03-26T01:08:31.692Z,12.7
2018-03-26T01:09:34.122Z,12.7
2018-03-26T01:10:36.841Z,12.7
2018-03-26T01:11:39.263Z,12.6
2018-03-26T01:12:42.005Z,12.7
2018-03-26T01:13:44.437Z,12.7
2018-03-26T01:14:46.860Z,12.7
2018-03-26T01:15:49.304Z,12.7
2018-03-26T01:16:52.046Z,12.6
2018-03-26T01:17:54.468Z,12.6
2018-03-26T01:18:56.906Z,12.7
2018-03-26T01:19:59.329Z,12.7
2018-03-26T01:21:01.755Z,12.6
2018-03-26T01:22:04.195Z,12.6
2018-03-26T01:23:06.906Z,12.6
2018-03-26T01:24:09.336Z,12.6
2018-03-26T01:25:11.769Z,12.6
2018-03-26T01:26:14.478Z,12.6
2018-03-26T01:27:16.919Z,12.6
2018-03-26T01:28:19.352Z,12.6
2018-03-26T01:29:21.770Z,12.6
2018-03-26T01:30:24.487Z,12.6
2018-03-26T01:31:26.916Z,12.6
2018-03-26T01:32:29.346Z,12.6
2018-03-26T01:33:31.787Z,12.6
2018-03-26T01:34:34.496Z,12.6
2018-03-26T01:35:36.926Z,12.6
2018-03-26T01:36:39.639Z,12.6
2018-03-26T01:37:42.075Z,12.6
2018-03-26T01:38:44.503Z,12.6
2018-03-26T01:39:47.235Z,12.6
2018-03-26T01:40:49.655Z,12.6
2018-03-26T01:41:52.093Z,12.6
2018-03-26T01:42:54.525Z,12.6
2018-03-26T01:43:56.953Z,12.6
2018-03-26T01:44:59.672Z,12.6
2018-03-26T01:46:02.098Z,12.6
2018-03-26T01:47:04.521Z,12.6
2018-03-26T01:48:07.270Z,12.7
2018-03-26T01:49:09.698Z,12.7
2018-03-26T01:50:12.132Z,12.7
2018-03-26T01:51:14.558Z,12.7
2018-03-26T01:52:16.991Z,12.7
2018-03-26T01:53:19.701Z,12.7
2018-03-26T01:54:22.136Z,12.8
2018-03-26T01:55:24.850Z,12.7
2018-03-26T01:56:27.574Z,12.7
2018-03-26T01:57:30.004Z,12.7
2018-03-26T01:58:32.436Z,12.7
2018-03-26T01:59:34.857Z,12.8
2018-03-26T02:00:37.285Z,12.8
2018-03-26T02:01:40.002Z,12.8
2018-03-26T02:02:42.737Z,12.7
2018-03-26T02:03:45.172Z,12.7
2018-03-26T02:04:47.594Z,12.7
2018-03-26T02:05:50.019Z,12.6
2018-03-26T02:06:52.730Z,12.6
2018-03-26T02:07:55.455Z,12.6
2018-03-26T02:08:57.895Z,12.6
2018-03-26T02:10:00.324Z,12.5
2018-03-26T02:11:02.743Z,12.5
2018-03-26T02:12:05.476Z,12.5
2018-03-26T02:13:08.195Z,12.5
2018-03-26T02:14:10.622Z,12.5
2018-03-26T02:15:13.050Z,12.4
2018-03-26T02:16:15.480Z,12.4
2018-03-26T02:17:17.912Z,12.4
2018-03-26T02:18:20.634Z,12.4
2018-03-26T02:19:23.346Z,12.4
2018-03-26T02:20:25.783Z,12.4
2018-03-26T02:21:28.209Z,12.4
2018-03-26T02:22:30.933Z,12.4
2018-03-26T02:23:33.362Z,12.4
2018-03-26T02:24:35.796Z,12.4
2018-03-26T02:25:38.219Z,12.4
2018-03-26T02:26:40.721Z,12.4
2018-03-26T02:27:43.084Z,12.4
2018-03-26T02:28:46.100Z,12.4
2018-03-26T02:29:48.813Z,12.4
2018-03-26T02:30:51.242Z,12.5
2018-03-26T02:31:53.677Z,12.4
2018-03-26T02:32:56.107Z,12.5
2018-03-26T02:33:58.539Z,12.5
2018-03-26T02:35:01.561Z,12.5
2018-03-26T02:36:03.978Z,12.5
2018-03-26T02:37:06.694Z,12.5
2018-03-26T02:38:09.142Z,12.5
2018-03-26T02:39:11.573Z,12.6
2018-03-26T02:40:13.993Z,12.6
2018-03-26T02:41:16.420Z,12.6
2018-03-26T02:42:18.853Z,12.6
2018-03-26T02:43:22.184Z,12.6
2018-03-26T02:44:25.195Z,12.6
2018-03-26T02:45:27.613Z,12.6
2018-03-26T02:46:30.053Z,12.6
2018-03-26T02:47:32.777Z,12.7
2018-03-26T02:48:35.205Z,12.7
2018-03-26T02:49:37.631Z,12.7
2018-03-26T02:50:40.136Z,12.7
2018-03-26T02:51:42.489Z,12.7
2018-03-26T02:52:44.932Z,12.7
2018-03-26T02:53:47.364Z,12.7
2018-03-26T02:54:49.787Z,12.7
2018-03-26T02:55:52.217Z,12.7
2018-03-26T02:56:54.648Z,12.7
2018-03-26T02:57:57.075Z,12.7
2018-03-26T02:58:59.510Z,12.7
2018-03-26T03:00:02.219Z,12.7
2018-03-26T03:01:05.238Z,12.7
2018-03-26T03:02:07.972Z,12.7
2018-03-26T03:03:10.394Z,12.7
2018-03-26T03:04:13.439Z,12.7
2018-03-26T03:05:15.860Z,12.8
2018-03-26T03:06:18.318Z,12.8
2018-03-26T03:07:20.752Z,12.8
2018-03-26T03:08:23.186Z,12.8
2018-03-26T03:09:26.185Z,12.8
2018-03-26T03:10:28.620Z,12.8
2018-03-26T03:11:31.329Z,12.8
2018-03-26T03:12:33.758Z,12.8
2018-03-26T03:13:36.181Z,12.8
2018-03-26T03:14:38.607Z,12.8
2018-03-26T03:15:41.326Z,12.8
2018-03-26T03:16:43.765Z,12.8
2018-03-26T03:17:46.187Z,12.8
2018-03-26T03:18:48.628Z,12.8
2018-03-26T03:19:51.057Z,12.8
2018-03-26T03:20:53.473Z,12.8
2018-03-26T03:21:55.905Z,12.9
2018-03-26T03:22:58.620Z,12.8
2018-03-26T03:24:01.055Z,12.9
2018-03-26T03:25:03.499Z,12.8
2018-03-26T03:26:05.910Z,12.9
2018-03-26T03:27:08.347Z,12.8
2018-03-26T03:28:11.086Z,12.8
2018-03-26T03:29:13.516Z,12.8
2018-03-26T03:30:15.942Z,12.8
2018-03-26T03:31:18.679Z,12.8
2018-03-26T03:32:21.109Z,12.8
2018-03-26T03:33:23.532Z,12.8
2018-03-26T03:34:25.963Z,12.8
2018-03-26T03:35:28.755Z,12.8
2018-03-26T03:36:31.178Z,12.8
2018-03-26T03:37:33.890Z,12.8
2018-03-26T03:38:36.319Z,12.8
2018-03-26T03:39:38.749Z,12.8
2018-03-26T03:40:41.190Z,12.8
2018-03-26T03:41:43.611Z,12.7
2018-03-26T03:42:46.320Z,12.8
2018-03-26T03:43:48.758Z,12.7
2018-03-26T03:44:51.792Z,12.7
2018-03-26T03:45:54.803Z,12.7
2018-03-26T03:46:57.238Z,12.7
2018-03-26T03:47:59.677Z,12.7
2018-03-26T03:49:02.105Z,12.7
2018-03-26T03:50:04.541Z,12.7
2018-03-26T03:51:06.966Z,12.6
2018-03-26T03:52:09.398Z,12.7
2018-03-26T03:53:12.416Z,12.7
2018-03-26T03:54:15.157Z,12.6
2018-03-26T03:55:17.583Z,12.6
2018-03-26T03:56:20.009Z,12.6
2018-03-26T03:57:22.721Z,12.6
2018-03-26T03:58:25.155Z,12.5
2018-03-26T03:59:27.872Z,12.5
2018-03-26T04:00:30.309Z,12.5
2018-03-26T04:01:32.736Z,12.5
2018-03-26T04:02:35.175Z,12.5
2018-03-26T04:03:37.615Z,12.5
2018-03-26T04:04:40.039Z,12.5
2018-03-26T04:05:42.459Z,12.4
2018-03-26T04:06:44.895Z,12.4
2018-03-26T04:07:47.325Z,12.4
2018-03-26T04:08:49.745Z,12.4
2018-03-26T04:09:52.466Z,12.4
2018-03-26T04:10:54.899Z,12.4
2018-03-26T04:11:57.327Z,12.3
2018-03-26T04:12:59.767Z,12.3
2018-03-26T04:14:02.533Z,12.3
2018-03-26T04:15:04.962Z,12.3
2018-03-26T04:16:07.397Z,12.2
2018-03-26T04:17:10.100Z,12.3
2018-03-26T04:18:12.543Z,12.3
2018-03-26T04:19:14.965Z,12.2
2018-03-26T04:20:17.401Z,12.2
2018-03-26T04:21:19.819Z,12.2
2018-03-26T04:22:22.245Z,12.2
2018-03-26T04:23:24.712Z,12.2
2018-03-26T04:24:27.107Z,12.2
2018-03-26T04:25:29.527Z,12.3
2018-03-26T04:26:31.962Z,12.3
2018-03-26T04:27:34.394Z,12.2
2018-03-26T04:28:37.134Z,12.3
2018-03-26T04:29:39.559Z,12.2
2018-03-26T04:30:41.987Z,12.3
2018-03-26T04:31:44.410Z,12.2
2018-03-26T04:32:46.837Z,12.3
2018-03-26T04:33:49.260Z,12.3
2018-03-26T04:34:51.695Z,12.3
2018-03-26T04:35:54.124Z,12.2
2018-03-26T04:36:56.548Z,12.2
2018-03-26T04:37:58.979Z,12.2
2018-03-26T04:39:01.406Z,12.2
2018-03-26T04:40:03.840Z,12.2
2018-03-26T04:41:06.276Z,12.2
2018-03-26T04:42:08.695Z,12.2
2018-03-26T04:43:11.123Z,12.1
2018-03-26T04:44:13.548Z,12.1
2018-03-26T04:45:16.270Z,12.2
2018-03-26T04:46:18.704Z,12.2
2018-03-26T04:47:21.136Z,12.1
2018-03-26T04:48:23.568Z,12.1
2018-03-26T04:49:26.274Z,12.1
2018-03-26T04:50:28.991Z,12.1
2018-03-26T04:51:31.403Z,12.1
2018-03-26T04:52:33.836Z,12.1
2018-03-26T04:53:36.268Z,12.1
2018-03-26T04:54:38.701Z,12.1
2018-03-26T04:55:41.420Z,12.1
2018-03-26T04:56:43.853Z,12.1
2018-03-26T04:57:46.280Z,12.1
2018-03-26T04:58:48.719Z,12.1
2018-03-26T04:59:51.147Z,12.1
2018-03-26T05:00:53.566Z,12
2018-03-26T05:01:55.994Z,12
2018-03-26T05:02:58.710Z,12
2018-03-26T05:04:01.435Z,12
2018-03-26T05:05:04.152Z,12
2018-03-26T05:06:06.862Z,11.9
2018-03-26T05:07:09.280Z,11.9
2018-03-26T05:08:12.003Z,11.9
2018-03-26T05:09:14.442Z,11.9
2018-03-26T05:10:17.159Z,11.9
2018-03-26T05:11:19.864Z,11.9
2018-03-26T05:12:22.304Z,11.9
2018-03-26T05:13:24.728Z,11.9
2018-03-26T05:14:27.209Z,11.9
2018-03-26T05:15:29.587Z,12
2018-03-26T05:16:32.022Z,12
2018-03-26T05:17:34.441Z,12
2018-03-26T05:18:36.872Z,12.1
2018-03-26T05:19:39.303Z,12.1
2018-03-26T05:20:41.732Z,12.1
2018-03-26T05:21:44.447Z,12.1
2018-03-26T05:22:46.939Z,12
2018-03-26T05:23:49.319Z,12
2018-03-26T05:24:51.759Z,12
2018-03-26T05:25:54.183Z,12
2018-03-26T05:26:56.605Z,11.9
2018-03-26T05:27:59.028Z,11.9
2018-03-26T05:29:01.460Z,11.8
2018-03-26T05:30:03.882Z,11.8
2018-03-26T05:31:06.365Z,11.8
2018-03-26T05:32:08.751Z,11.8
2018-03-26T05:33:11.180Z,11.7
2018-03-26T05:34:13.892Z,11.7
2018-03-26T05:35:16.322Z,11.7
2018-03-26T05:36:18.752Z,11.7
2018-03-26T05:37:21.178Z,11.7
2018-03-26T05:38:23.893Z,11.7
2018-03-26T05:39:26.604Z,11.7
2018-03-26T05:40:29.385Z,11.7
2018-03-26T05:41:32.685Z,11.7
2018-03-26T05:42:35.116Z,11.7
2018-03-26T05:43:37.539Z,11.6
2018-03-26T05:44:39.971Z,11.6
2018-03-26T05:45:42.403Z,11.6
2018-03-26T05:46:44.837Z,11.7
2018-03-26T05:47:47.558Z,11.7
2018-03-26T05:48:49.974Z,11.7
2018-03-26T05:49:52.407Z,11.7
2018-03-26T05:50:54.848Z,11.7
2018-03-26T05:51:57.561Z,11.7
2018-03-26T05:52:59.985Z,11.8
2018-03-26T05:54:02.413Z,11.8
2018-03-26T05:55:04.842Z,11.8
2018-03-26T05:56:07.279Z,11.8
2018-03-26T05:57:09.715Z,11.8
2018-03-26T05:58:12.422Z,11.7
2018-03-26T05:59:14.856Z,11.7
2018-03-26T06:00:17.280Z,11.7
2018-03-26T06:01:19.713Z,11.8
2018-03-26T06:02:22.135Z,11.7
2018-03-26T06:03:24.577Z,11.7
2018-03-26T06:04:27.008Z,11.7
2018-03-26T06:05:29.711Z,11.7
2018-03-26T06:06:32.434Z,11.7
2018-03-26T06:07:35.154Z,11.7
2018-03-26T06:08:37.587Z,11.7
2018-03-26T06:09:40.341Z,11.7
2018-03-26T06:10:43.046Z,11.7
2018-03-26T06:11:45.477Z,11.7
2018-03-26T06:12:48.208Z,11.8
2018-03-26T06:13:50.922Z,11.8
2018-03-26T06:14:53.348Z,11.8
2018-03-26T06:15:55.780Z,11.8
2018-03-26T06:16:58.202Z,11.8
2018-03-26T06:18:00.640Z,11.8
2018-03-26T06:19:03.111Z,11.8
2018-03-26T06:20:05.823Z,11.9
2018-03-26T06:21:08.560Z,11.9
2018-03-26T06:22:11.288Z,11.9
2018-03-26T06:23:13.714Z,11.9
2018-03-26T06:24:16.142Z,11.9
2018-03-26T06:25:19.176Z,11.9
2018-03-26T06:26:21.912Z,12
2018-03-26T06:27:24.628Z,11.9
2018-03-26T06:28:27.632Z,11.9
2018-03-26T06:29:30.340Z,12
2018-03-26T06:30:33.224Z,12
2018-03-26T06:31:36.113Z,12
2018-03-26T06:32:38.543Z,12
2018-03-26T06:33:40.982Z,12
2018-03-26T06:34:43.410Z,12
2018-03-26T06:35:45.842Z,12
2018-03-26T06:36:48.539Z,11.9
2018-03-26T06:37:50.982Z,11.9
2018-03-26T06:38:53.399Z,11.9
2018-03-26T06:39:55.830Z,11.9
2018-03-26T06:40:58.263Z,11.9
2018-03-26T06:42:01.002Z,11.9
2018-03-26T06:43:03.426Z,11.9
2018-03-26T06:44:05.907Z,11.9
2018-03-26T06:45:08.580Z,11.9
2018-03-26T06:46:11.016Z,11.8
2018-03-26T06:47:13.486Z,11.8
2018-03-26T06:48:15.886Z,11.8
2018-03-26T06:49:18.307Z,11.8
2018-03-26T06:50:20.744Z,11.8
2018-03-26T06:51:23.459Z,11.8
2018-03-26T06:52:26.174Z,11.8
2018-03-26T06:53:28.593Z,11.8
2018-03-26T06:54:31.022Z,11.8
2018-03-26T06:55:33.448Z,11.8
2018-03-26T06:56:35.878Z,11.7
2018-03-26T06:57:38.296Z,11.8
2018-03-26T06:58:40.724Z,11.7
2018-03-26T06:59:43.154Z,11.8
2018-03-26T07:00:45.587Z,11.8
2018-03-26T07:01:48.012Z,11.8
2018-03-26T07:02:50.451Z,11.8
2018-03-26T07:03:52.888Z,11.9
2018-03-26T07:04:55.296Z,11.9
2018-03-26T07:05:57.721Z,11.9
2018-03-26T07:07:00.155Z,11.9
2018-03-26T07:08:02.612Z,11.9
2018-03-26T07:09:06.469Z,11.9
2018-03-26T07:10:09.180Z,12
2018-03-26T07:11:11.602Z,12
2018-03-26T07:12:14.332Z,12
2018-03-26T07:13:16.756Z,12
2018-03-26T07:14:19.462Z,12
2018-03-26T07:15:22.472Z,12
2018-03-26T07:16:24.899Z,12.1
2018-03-26T07:17:27.344Z,12.1
2018-03-26T07:18:29.985Z,12.1
2018-03-26T07:19:32.419Z,12.1
2018-03-26T07:20:35.141Z,12.1
2018-03-26T07:21:37.630Z,12.2
2018-03-26T07:22:40.354Z,12.1
2018-03-26T07:23:42.778Z,12.2
2018-03-26T07:24:45.204Z,12.2
2018-03-26T07:25:47.634Z,12.2
2018-03-26T07:26:50.079Z,12.2
2018-03-26T07:27:52.509Z,12.2
2018-03-26T07:28:54.931Z,12.2
2018-03-26T07:29:57.400Z,12.2
2018-03-26T07:31:00.081Z,12.2
2018-03-26T07:32:02.504Z,12.2
2018-03-26T07:33:04.935Z,12.2
2018-03-26T07:34:07.366Z,12.2
2018-03-26T07:35:10.091Z,12.2
2018-03-26T07:36:12.512Z,12.1
2018-03-26T07:37:14.956Z,12.1
2018-03-26T07:38:17.380Z,12.2
2018-03-26T07:39:19.813Z,12.2
2018-03-26T07:40:22.535Z,12.2
2018-03-26T07:41:25.254Z,12.2
2018-03-26T07:42:27.688Z,12.2
2018-03-26T07:43:30.120Z,12.2
2018-03-26T07:44:32.542Z,12.3
2018-03-26T07:45:34.976Z,12.3
2018-03-26T07:46:37.395Z,12.3
2018-03-26T07:47:39.828Z,12.3
2018-03-26T07:48:42.260Z,12.4
2018-03-26T07:49:44.690Z,12.4
2018-03-26T07:50:47.108Z,12.4
2018-03-26T07:51:49.548Z,12.4
2018-03-26T07:52:52.262Z,12.4
2018-03-26T07:53:54.695Z,12.4
2018-03-26T07:54:57.129Z,12.4
2018-03-26T07:55:59.845Z,12.3
2018-03-26T07:57:02.630Z,12.3
2018-03-26T07:58:05.067Z,12.4
2018-03-26T07:59:07.493Z,12.3
2018-03-26T08:00:09.918Z,12.3
2018-03-26T08:01:12.636Z,12.3
2018-03-26T08:02:15.081Z,12.2
2018-03-26T08:03:17.791Z,12.2
2018-03-26T08:04:20.222Z,12.3
2018-03-26T08:05:22.658Z,12.3
2018-03-26T08:06:25.367Z,12.2
2018-03-26T08:07:27.795Z,12.3
2018-03-26T08:08:30.222Z,12.3
2018-03-26T08:09:32.949Z,12.3
2018-03-26T08:10:35.390Z,12.3
2018-03-26T08:11:38.097Z,12.3
2018-03-26T08:12:40.516Z,12.3
2018-03-26T08:13:43.221Z,12.3
2018-03-26T08:14:45.643Z,12.2
2018-03-26T08:15:48.360Z,12.3
2018-03-26T08:16:51.148Z,12.2
2018-03-26T08:17:53.507Z,12.2
2018-03-26T08:18:56.222Z,12.2
2018-03-26T08:19:58.698Z,12.3
2018-03-26T08:21:01.129Z,12.3
2018-03-26T08:22:03.560Z,12.3
2018-03-26T08:23:05.992Z,12.3
2018-03-26T08:24:08.411Z,12.3
2018-03-26T08:25:10.846Z,12.4
2018-03-26T08:26:13.288Z,12.4
2018-03-26T08:27:16.007Z,12.4
2018-03-26T08:28:18.433Z,12.5
2018-03-26T08:29:21.160Z,12.5
2018-03-26T08:30:23.595Z,12.5
2018-03-26T08:31:26.031Z,12.5
2018-03-26T08:32:28.468Z,12.6
2018-03-26T08:33:30.895Z,12.6
2018-03-26T08:34:33.322Z,12.6
2018-03-26T08:35:35.748Z,12.6
2018-03-26T08:36:38.184Z,12.6
2018-03-26T08:37:40.602Z,12.6
2018-03-26T08:38:43.319Z,12.6
2018-03-26T08:39:45.752Z,12.6
2018-03-26T08:40:48.183Z,12.6
2018-03-26T08:41:50.622Z,12.6
2018-03-26T08:42:53.058Z,12.6
2018-03-26T08:43:55.489Z,12.6
2018-03-26T08:44:57.925Z,12.6
2018-03-26T08:46:00.359Z,12.6
2018-03-26T08:47:02.782Z,12.6
2018-03-26T08:48:05.210Z,12.5
2018-03-26T08:49:07.636Z,12.6
2018-03-26T08:50:10.201Z,12.6
2018-03-26T08:51:12.506Z,12.5
2018-03-26T08:52:14.925Z,12.6
2018-03-26T08:53:17.642Z,12.6
2018-03-26T08:54:20.070Z,12.6
2018-03-26T08:55:22.508Z,12.6
2018-03-26T08:56:24.938Z,12.6
2018-03-26T08:57:27.369Z,12.6
2018-03-26T08:58:29.793Z,12.6
2018-03-26T08:59:32.532Z,12.7
2018-03-26T09:00:35.239Z,12.7
2018-03-26T09:01:37.960Z,12.7
2018-03-26T09:02:40.380Z,12.7
2018-03-26T09:03:42.818Z,12.7
2018-03-26T09:04:45.532Z,12.7
2018-03-26T09:05:48.019Z,12.6
2018-03-26T09:06:50.389Z,12.6
2018-03-26T09:07:52.824Z,12.6
2018-03-26T09:08:55.254Z,12.6
2018-03-26T09:09:57.691Z,12.6
2018-03-26T09:11:00.109Z,12.6
2018-03-26T09:12:02.606Z,12.6
2018-03-26T09:13:05.262Z,12.6
2018-03-26T09:14:07.705Z,12.6
2018-03-26T09:15:10.130Z,12.5
2018-03-26T09:16:12.562Z,12.5
2018-03-26T09:17:15.277Z,12.4
2018-03-26T09:18:17.712Z,12.4
2018-03-26T09:19:20.144Z,12.4
2018-03-26T09:20:22.579Z,12.3
2018-03-26T09:21:25.293Z,12.3
2018-03-26T09:22:27.728Z,12.3
2018-03-26T09:23:30.442Z,12.3
2018-03-26T09:24:32.876Z,12.4
2018-03-26T09:25:35.290Z,12.3
2018-03-26T09:26:37.718Z,12.3
2018-03-26T09:27:40.148Z,12.3
2018-03-26T09:28:42.574Z,12.3
2018-03-26T09:29:45.003Z,12.3
2018-03-26T09:30:47.740Z,12.3
2018-03-26T09:31:50.166Z,12.3
2018-03-26T09:32:52.879Z,12.3
2018-03-26T09:33:55.305Z,12.3
2018-03-26T09:34:58.032Z,12.3
2018-03-26T09:36:00.457Z,12.4
2018-03-26T09:37:02.879Z,12.3
2018-03-26T09:38:05.597Z,12.4
2018-03-26T09:39:08.024Z,12.4
2018-03-26T09:40:10.461Z,12.4
2018-03-26T09:41:12.886Z,12.4
2018-03-26T09:42:15.590Z,12.4
2018-03-26T09:43:18.031Z,12.4
2018-03-26T09:44:20.463Z,12.5
2018-03-26T09:45:22.899Z,12.5
2018-03-26T09:46:25.325Z,12.5
2018-03-26T09:47:27.742Z,12.5
2018-03-26T09:48:30.173Z,12.5
2018-03-26T09:49:32.904Z,12.5
2018-03-26T09:50:35.330Z,12.6
2018-03-26T09:51:37.753Z,12.5
2018-03-26T09:52:40.483Z,12.5
2018-03-26T09:53:43.189Z,12.5
2018-03-26T09:54:45.620Z,12.5
2018-03-26T09:55:48.051Z,12.5
2018-03-26T09:56:50.475Z,12.5
2018-03-26T09:57:53.497Z,12.5
2018-03-26T09:58:55.937Z,12.4
2018-03-26T09:59:58.366Z,12.4
2018-03-26T10:01:00.781Z,12.4
2018-03-26T10:02:03.508Z,12.3
2018-03-26T10:03:06.214Z,12.3
2018-03-26T10:04:08.641Z,12.3
2018-03-26T10:05:11.070Z,12.3
2018-03-26T10:06:13.490Z,12.3
2018-03-26T10:07:15.918Z,12.3
2018-03-26T10:08:18.661Z,12.3
2018-03-26T10:09:21.088Z,12.3
2018-03-26T10:10:23.831Z,12.3
2018-03-26T10:11:26.258Z,12.3
2018-03-26T10:12:28.684Z,12.3
2018-03-26T10:13:31.127Z,12.4
2018-03-26T10:14:33.557Z,12.4
2018-03-26T10:15:35.973Z,12.4
2018-03-26T10:16:38.410Z,12.4
2018-03-26T10:17:41.127Z,12.4
2018-03-26T10:18:43.553Z,12.4
2018-03-26T10:19:46.018Z,12.3
2018-03-26T10:20:48.403Z,12.3
2018-03-26T10:21:50.831Z,12.3
2018-03-26T10:22:53.273Z,12.3
2018-03-26T10:23:55.705Z,12.2
2018-03-26T10:24:58.125Z,12.2
2018-03-26T10:26:00.557Z,12.2
2018-03-26T10:27:02.989Z,12.2
2018-03-26T10:28:05.420Z,12.2
2018-03-26T10:29:08.134Z,12.2
2018-03-26T10:30:10.570Z,12.1
2018-03-26T10:31:13.291Z,12.1
2018-03-26T10:32:15.718Z,12.1
2018-03-26T10:33:18.432Z,12.1
2018-03-26T10:34:20.873Z,12.1
2018-03-26T10:35:23.582Z,12.1
2018-03-26T10:36:26.055Z,12.1
2018-03-26T10:37:28.731Z,12.1
2018-03-26T10:38:31.541Z,12.1
2018-03-26T10:39:33.927Z,12.1
2018-03-26T10:40:36.355Z,12.1
2018-03-26T10:41:38.765Z,12
2018-03-26T10:42:41.202Z,12
2018-03-26T10:43:43.630Z,12
2018-03-26T10:44:46.060Z,12
2018-03-26T10:45:48.776Z,11.9
2018-03-26T10:46:51.202Z,11.9
2018-03-26T10:47:53.911Z,12
2018-03-26T10:48:56.352Z,11.9
2018-03-26T10:49:58.776Z,11.9
2018-03-26T10:51:01.208Z,11.9
2018-03-26T10:52:03.982Z,11.9
2018-03-26T10:53:06.409Z,11.9
2018-03-26T10:54:08.838Z,11.9
2018-03-26T10:55:11.561Z,12
2018-03-26T10:56:14.258Z,12
2018-03-26T10:57:16.684Z,12
2018-03-26T10:58:19.120Z,12
2018-03-26T10:59:21.552Z,12
2018-03-26T11:00:24.009Z,12
2018-03-26T11:01:26.413Z,12
2018-03-26T11:02:28.843Z,12
2018-03-26T11:03:31.265Z,12
2018-03-26T11:04:33.704Z,12
2018-03-26T11:05:36.159Z,12
2018-03-26T11:06:38.549Z,12
2018-03-26T11:07:40.978Z,12
2018-03-26T11:08:43.694Z,11.9
2018-03-26T11:09:46.401Z,12
2018-03-26T11:10:48.840Z,12
2018-03-26T11:11:51.542Z,12
2018-03-26T11:12:53.984Z,12
2018-03-26T11:13:56.413Z,12
2018-03-26T11:14:59.104Z,12
2018-03-26T11:16:01.540Z,12
2018-03-26T11:17:03.965Z,12
2018-03-26T11:18:06.401Z,12
2018-03-26T11:19:09.119Z,12
2018-03-26T11:20:11.543Z,12
2018-03-26T11:21:13.976Z,12
2018-03-26T11:22:16.413Z,11.9
2018-03-26T11:23:18.841Z,11.9
2018-03-26T11:24:21.270Z,11.9
2018-03-26T11:25:23.699Z,11.9
2018-03-26T11:26:26.128Z,11.9
2018-03-26T11:27:28.834Z,11.9
2018-03-26T11:28:31.550Z,11.9
2018-03-26T11:29:33.988Z,11.9
2018-03-26T11:30:36.416Z,11.9
2018-03-26T11:31:39.705Z,11.8
2018-03-26T11:32:42.137Z,11.8
2018-03-26T11:33:44.573Z,11.7
2018-03-26T11:34:47.019Z,11.7
2018-03-26T11:35:49.452Z,11.7
2018-03-26T11:36:51.867Z,11.7
2018-03-26T11:37:54.299Z,11.7
2018-03-26T11:38:57.031Z,11.7
2018-03-26T11:39:59.458Z,11.7
2018-03-26T11:41:01.889Z,11.7
2018-03-26T11:42:04.319Z,11.7
2018-03-26T11:43:06.750Z,11.7
2018-03-26T11:44:09.467Z,11.7
2018-03-26T11:45:12.187Z,11.7
2018-03-26T11:46:14.619Z,11.7
2018-03-26T11:47:17.054Z,11.7
2018-03-26T11:48:19.492Z,11.6
2018-03-26T11:49:21.915Z,11.6
2018-03-26T11:50:24.642Z,11.6
2018-03-26T11:51:27.352Z,11.5
2018-03-26T11:52:29.782Z,11.5
2018-03-26T11:53:32.415Z,11.5
2018-03-26T11:54:34.840Z,11.5
2018-03-26T11:55:37.269Z,11.5
2018-03-26T11:56:39.704Z,11.5
2018-03-26T11:57:42.131Z,11.5
2018-03-26T11:58:44.559Z,11.5
2018-03-26T11:59:46.979Z,11.6
2018-03-26T12:00:49.416Z,11.6
2018-03-26T12:01:51.884Z,11.7
2018-03-26T12:02:54.306Z,11.7
2018-03-26T12:03:57.040Z,11.7
2018-03-26T12:04:59.464Z,11.7
2018-03-26T12:06:01.897Z,11.7
2018-03-26T12:07:04.612Z,11.8
2018-03-26T12:08:07.034Z,11.7
2018-03-26T12:09:09.470Z,11.8
2018-03-26T12:10:11.917Z,11.7
2018-03-26T12:11:14.340Z,11.7
2018-03-26T12:12:17.116Z,11.7
2018-03-26T12:13:19.554Z,11.8
2018-03-26T12:14:21.975Z,11.8
2018-03-26T12:15:24.402Z,11.8
2018-03-26T12:16:27.005Z,11.8
2018-03-26T12:17:29.433Z,11.9
2018-03-26T12:18:31.860Z,11.9
2018-03-26T12:19:34.291Z,11.9
2018-03-26T12:20:36.716Z,11.9
2018-03-26T12:21:39.146Z,11.9
2018-03-26T12:22:41.579Z,11.9
2018-03-26T12:23:44.004Z,11.9
2018-03-26T12:24:46.439Z,11.8
2018-03-26T12:25:48.875Z,11.8
2018-03-26T12:26:51.297Z,11.8
2018-03-26T12:27:53.736Z,11.7
2018-03-26T12:28:56.170Z,11.7
2018-03-26T12:29:58.600Z,11.7
2018-03-26T12:31:01.030Z,11.7
2018-03-26T12:32:03.462Z,11.7
2018-03-26T12:33:05.888Z,11.7
2018-03-26T12:34:08.327Z,11.7
2018-03-26T12:35:10.748Z,11.7
2018-03-26T12:36:13.177Z,11.7
2018-03-26T12:37:15.895Z,11.7
2018-03-26T12:38:18.328Z,11.7
2018-03-26T12:39:20.762Z,11.6
2018-03-26T12:40:23.193Z,11.6
2018-03-26T12:41:25.627Z,11.6
2018-03-26T12:42:28.065Z,11.6
2018-03-26T12:43:30.504Z,11.6
2018-03-26T12:44:32.940Z,11.6
2018-03-26T12:45:35.357Z,11.6
2018-03-26T12:46:38.071Z,11.6
2018-03-26T12:47:40.510Z,11.6
2018-03-26T12:48:42.932Z,11.6
2018-03-26T12:49:45.637Z,11.6
2018-03-26T12:50:48.069Z,11.6
2018-03-26T12:51:50.493Z,11.6
2018-03-26T12:52:52.932Z,11.6
2018-03-26T12:53:55.363Z,11.6
2018-03-26T12:54:58.364Z,11.5
2018-03-26T12:56:00.798Z,11.5
2018-03-26T12:57:03.523Z,11.5
2018-03-26T12:58:05.958Z,11.5
2018-03-26T12:59:08.388Z,11.5
2018-03-26T13:00:10.808Z,11.5
2018-03-26T13:01:13.241Z,11.5
2018-03-26T13:02:15.673Z,11.5
2018-03-26T13:03:18.097Z,11.5
2018-03-26T13:04:20.524Z,11.5
2018-03-26T13:05:22.951Z,11.5
2018-03-26T13:06:25.382Z,11.5
2018-03-26T13:07:27.817Z,11.6
2018-03-26T13:08:30.242Z,11.6
2018-03-26T13:09:32.673Z,11.7
2018-03-26T13:10:35.123Z,11.7
2018-03-26T13:11:37.545Z,11.7
2018-03-26T13:12:39.975Z,11.7
2018-03-26T13:13:42.412Z,11.7
2018-03-26T13:14:44.830Z,11.7
2018-03-26T13:15:47.260Z,11.7
2018-03-26T13:16:49.684Z,11.7
2018-03-26T13:17:52.105Z,11.7
2018-03-26T13:18:54.549Z,11.7
2018-03-26T13:19:57.270Z,11.7
2018-03-26T13:20:59.683Z,11.7
2018-03-26T13:22:02.116Z,11.7
2018-03-26T13:23:05.118Z,11.6
2018-03-26T13:24:07.545Z,11.6
2018-03-26T13:25:10.253Z,11.6
2018-03-26T13:26:12.692Z,11.6
2018-03-26T13:27:15.124Z,11.6
2018-03-26T13:28:17.548Z,11.5
2018-03-26T13:29:20.284Z,11.5
2018-03-26T13:30:22.708Z,11.5
2018-03-26T13:31:25.135Z,11.5
2018-03-26T13:32:27.576Z,11.5
2018-03-26T13:33:30.008Z,11.4
2018-03-26T13:34:32.714Z,11.4
2018-03-26T13:35:35.152Z,11.4
2018-03-26T13:36:37.581Z,11.4
2018-03-26T13:37:40.583Z,11.4
2018-03-26T13:38:43.009Z,11.3
2018-03-26T13:39:45.718Z,11.3
2018-03-26T13:40:48.147Z,11.3
2018-03-26T13:41:50.590Z,11.3
2018-03-26T13:42:53.302Z,11.2
2018-03-26T13:43:55.737Z,11.2
2018-03-26T13:44:58.160Z,11.1
2018-03-26T13:46:00.591Z,11.1
2018-03-26T13:47:03.008Z,11.1
2018-03-26T13:48:05.448Z,11
2018-03-26T13:49:08.162Z,11
2018-03-26T13:50:10.596Z,11
2018-03-26T13:51:13.017Z,11
2018-03-26T13:52:15.448Z,10.9
2018-03-26T13:53:18.163Z,10.9
2018-03-26T13:54:20.601Z,10.9
2018-03-26T13:55:23.035Z,10.9
2018-03-26T13:56:25.758Z,10.9
2018-03-26T13:57:28.763Z,10.9